sensor_id;sensor_type;location;lat;lon;timestamp;temperature;humidity
11583;DHT22;34299;50.820;4.548;2023-06-24T00:00:03;18.30;99.90
11583;DHT22;34299;50.820;4.548;2023-06-24T00:02:32;18.50;99.90
11583;DHT22;34299;50.820;4.548;2023-06-24T00:05:02;18.50;99.90
11583;DHT22;34299;50.820;4.548;2023-06-24T00:07:31;18.30;99.90
11583;DHT22;34299;50.820;4.548;2023-06-24T00:17:21;18.10;99.90
11583;DHT22;34299;50.820;4.548;2023-06-24T00:19:48;17.60;99.90
11583;DHT22;34299;50.820;4.548;2023-06-24T00:22:15;17.50;99.90
11583;DHT22;34299;50.820;4.548;2023-06-24T00:24:42;17.50;99.90
11583;DHT22;34299;50.820;4.548;2023-06-24T00:27:09;17.50;99.90
11583;DHT22;34299;50.820;4.548;2023-06-24T00:29:36;17.30;99.90
11583;DHT22;34299;50.820;4.548;2023-06-24T00:32:03;17.10;99.90
11583;DHT22;34299;50.820;4.548;2023-06-24T02:56:40;17.00;99.90
11583;DHT22;34299;50.820;4.548;2023-06-24T02:59:10;15.10;99.90
11583;DHT22;34299;50.820;4.548;2023-06-24T03:01:38;15.00;99.90
11583;DHT22;34299;50.820;4.548;2023-06-24T03:04:10;14.80;99.90
11583;DHT22;34299;50.820;4.548;2023-06-24T03:06:37;14.90;99.90
11583;DHT22;34299;50.820;4.548;2023-06-24T03:09:05;14.80;99.90
11583;DHT22;34299;50.820;4.548;2023-06-24T03:11:41;14.90;99.90
11583;DHT22;34299;50.820;4.548;2023-06-24T03:14:08;14.90;99.90
11583;DHT22;34299;50.820;4.548;2023-06-24T03:16:35;15.00;99.90
11583;DHT22;34299;50.820;4.548;2023-06-24T03:19:03;14.70;99.90
11583;DHT22;34299;50.820;4.548;2023-06-24T03:21:31;14.70;99.90
11583;DHT22;34299;50.820;4.548;2023-06-24T03:23:58;14.70;99.90
11583;DHT22;34299;50.820;4.548;2023-06-24T03:26:30;14.60;99.90
11583;DHT22;34299;50.820;4.548;2023-06-24T03:28:59;14.70;99.90
11583;DHT22;34299;50.820;4.548;2023-06-24T05:24:40;14.70;99.90
11583;DHT22;34299;50.820;4.548;2023-06-24T05:27:07;16.40;99.90
11583;DHT22;34299;50.820;4.548;2023-06-24T07:54:43;16.70;99.90
11583;DHT22;34299;50.820;4.548;2023-06-24T07:57:10;21.40;99.90
11583;DHT22;34299;50.820;4.548;2023-06-24T07:59:37;21.30;99.90
11583;DHT22;34299;50.820;4.548;2023-06-24T08:02:05;21.00;99.90
11583;DHT22;34299;50.820;4.548;2023-06-24T08:04:33;21.30;99.90
11583;DHT22;34299;50.820;4.548;2023-06-24T08:07:00;21.40;99.90
11583;DHT22;34299;50.820;4.548;2023-06-24T08:09:29;21.40;99.90
11583;DHT22;34299;50.820;4.548;2023-06-24T08:11:56;21.50;99.90
11583;DHT22;34299;50.820;4.548;2023-06-24T08:14:23;21.70;99.90
11583;DHT22;34299;50.820;4.548;2023-06-24T08:16:49;21.70;99.90
11583;DHT22;34299;50.820;4.548;2023-06-24T08:19:16;21.70;99.90
11583;DHT22;34299;50.820;4.548;2023-06-24T08:21:45;21.70;99.90
11583;DHT22;34299;50.820;4.548;2023-06-24T08:24:12;22.00;99.90
11583;DHT22;34299;50.820;4.548;2023-06-24T08:26:38;22.10;99.90
11583;DHT22;34299;50.820;4.548;2023-06-24T08:29:05;22.10;99.90
11583;DHT22;34299;50.820;4.548;2023-06-24T08:31:33;22.20;99.90
11583;DHT22;34299;50.820;4.548;2023-06-24T08:34:00;22.30;99.90
11583;DHT22;34299;50.820;4.548;2023-06-24T08:36:28;22.50;99.90
11583;DHT22;34299;50.820;4.548;2023-06-24T09:13:37;22.70;99.90
11583;DHT22;34299;50.820;4.548;2023-06-24T09:16:12;24.00;99.90
11583;DHT22;34299;50.820;4.548;2023-06-24T09:18:40;23.90;99.90
11583;DHT22;34299;50.820;4.548;2023-06-24T09:21:10;24.10;99.90
11583;DHT22;34299;50.820;4.548;2023-06-24T09:41:02;23.90;99.90
11583;DHT22;34299;50.820;4.548;2023-06-24T09:43:34;25.00;99.90
11583;DHT22;34299;50.820;4.548;2023-06-24T09:46:04;25.00;99.90
11583;DHT22;34299;50.820;4.548;2023-06-24T09:48:31;25.10;99.90
11583;DHT22;34299;50.820;4.548;2023-06-24T09:51:00;25.20;99.90
11583;DHT22;34299;50.820;4.548;2023-06-24T09:53:31;25.30;99.90
11583;DHT22;34299;50.820;4.548;2023-06-24T09:56:00;25.10;99.90
11583;DHT22;34299;50.820;4.548;2023-06-24T09:58:28;25.00;99.90
11583;DHT22;34299;50.820;4.548;2023-06-24T10:01:02;25.10;99.90
11583;DHT22;34299;50.820;4.548;2023-06-24T10:05:59;25.20;99.90
11583;DHT22;34299;50.820;4.548;2023-06-24T10:08:28;25.40;99.90
11583;DHT22;34299;50.820;4.548;2023-06-24T10:10:55;25.40;99.90
11583;DHT22;34299;50.820;4.548;2023-06-24T10:13:22;25.70;99.90
11583;DHT22;34299;50.820;4.548;2023-06-24T10:15:50;26.00;99.90
11583;DHT22;34299;50.820;4.548;2023-06-24T10:21:01;26.00;99.90
11583;DHT22;34299;50.820;4.548;2023-06-24T10:23:38;26.30;99.90
11583;DHT22;34299;50.820;4.548;2023-06-24T10:26:08;26.40;99.90
11583;DHT22;34299;50.820;4.548;2023-06-24T10:29:09;26.60;99.90
11583;DHT22;34299;50.820;4.548;2023-06-24T10:31:51;26.50;99.90
11583;DHT22;34299;50.820;4.548;2023-06-24T10:39:46;26.50;99.90
11583;DHT22;34299;50.820;4.548;2023-06-24T10:42:31;27.30;99.90
11583;DHT22;34299;50.820;4.548;2023-06-24T10:49:56;27.40;99.90
11583;DHT22;34299;50.820;4.548;2023-06-24T10:52:24;27.60;99.90
11583;DHT22;34299;50.820;4.548;2023-06-24T11:02:19;27.60;99.90
11583;DHT22;34299;50.820;4.548;2023-06-24T11:04:47;28.30;99.90
11583;DHT22;34299;50.820;4.548;2023-06-24T11:07:17;28.30;99.90
11583;DHT22;34299;50.820;4.548;2023-06-24T11:09:48;29.00;99.90
11583;DHT22;34299;50.820;4.548;2023-06-24T11:12:16;29.20;99.90
11583;DHT22;34299;50.820;4.548;2023-06-24T11:14:43;28.50;99.90
11583;DHT22;34299;50.820;4.548;2023-06-24T11:17:10;28.70;99.90
11583;DHT22;34299;50.820;4.548;2023-06-24T11:19:38;28.70;99.90
11583;DHT22;34299;50.820;4.548;2023-06-24T11:22:07;29.50;99.90
11583;DHT22;34299;50.820;4.548;2023-06-24T11:24:35;29.70;99.90
11583;DHT22;34299;50.820;4.548;2023-06-24T11:27:05;29.80;99.90
11583;DHT22;34299;50.820;4.548;2023-06-24T11:32:01;29.70;99.30
11583;DHT22;34299;50.820;4.548;2023-06-24T11:34:29;30.10;99.90
11583;DHT22;34299;50.820;4.548;2023-06-24T11:36:56;30.10;99.90
11583;DHT22;34299;50.820;4.548;2023-06-24T11:39:23;29.40;98.60
11583;DHT22;34299;50.820;4.548;2023-06-24T11:41:52;29.30;99.90
11583;DHT22;34299;50.820;4.548;2023-06-24T11:44:20;29.40;99.90
11583;DHT22;34299;50.820;4.548;2023-06-24T11:46:47;29.80;98.10
11583;DHT22;34299;50.820;4.548;2023-06-24T12:04:12;30.10;97.90
11583;DHT22;34299;50.820;4.548;2023-06-24T12:06:39;31.00;96.00
11583;DHT22;34299;50.820;4.548;2023-06-24T12:09:07;30.50;96.80
11583;DHT22;34299;50.820;4.548;2023-06-24T12:11:34;30.20;95.60
11583;DHT22;34299;50.820;4.548;2023-06-24T12:14:02;30.70;95.90
11583;DHT22;34299;50.820;4.548;2023-06-24T12:16:30;30.40;95.60
11583;DHT22;34299;50.820;4.548;2023-06-24T12:18:57;30.20;97.00
11583;DHT22;34299;50.820;4.548;2023-06-24T12:21:24;30.00;95.80
11583;DHT22;34299;50.820;4.548;2023-06-24T12:38:36;30.30;94.40
11583;DHT22;34299;50.820;4.548;2023-06-24T12:41:03;31.20;91.70
11583;DHT22;34299;50.820;4.548;2023-06-24T12:43:30;32.00;94.10
11583;DHT22;34299;50.820;4.548;2023-06-24T12:50:53;32.10;90.10
11583;DHT22;34299;50.820;4.548;2023-06-24T12:53:21;33.70;84.10
11583;DHT22;34299;50.820;4.548;2023-06-24T12:55:48;34.10;81.80
11583;DHT22;34299;50.820;4.548;2023-06-24T13:00:46;33.50;84.50
11583;DHT22;34299;50.820;4.548;2023-06-24T13:03:13;34.30;84.80
11583;DHT22;34299;50.820;4.548;2023-06-24T13:08:09;33.60;83.30
11583;DHT22;34299;50.820;4.548;2023-06-24T13:10:36;34.60;80.00
11583;DHT22;34299;50.820;4.548;2023-06-24T13:13:03;34.30;85.90
11583;DHT22;34299;50.820;4.548;2023-06-24T13:15:30;34.50;81.90
11583;DHT22;34299;50.820;4.548;2023-06-24T13:17:57;34.40;79.10
11583;DHT22;34299;50.820;4.548;2023-06-24T13:20:24;34.60;79.50
11583;DHT22;34299;50.820;4.548;2023-06-24T13:22:51;35.10;78.70
11583;DHT22;34299;50.820;4.548;2023-06-24T13:25:20;35.20;76.30
11583;DHT22;34299;50.820;4.548;2023-06-24T13:27:47;35.10;78.40
11583;DHT22;34299;50.820;4.548;2023-06-24T13:30:15;35.00;76.40
11583;DHT22;34299;50.820;4.548;2023-06-24T13:32:42;35.50;79.30
11583;DHT22;34299;50.820;4.548;2023-06-24T13:35:09;35.90;79.80
11583;DHT22;34299;50.820;4.548;2023-06-24T13:37:36;35.80;75.30
11583;DHT22;34299;50.820;4.548;2023-06-24T13:40:05;34.40;78.20
11583;DHT22;34299;50.820;4.548;2023-06-24T13:42:34;34.40;76.00
11583;DHT22;34299;50.820;4.548;2023-06-24T13:45:01;34.10;73.10
11583;DHT22;34299;50.820;4.548;2023-06-24T13:47:28;33.80;78.00
11583;DHT22;34299;50.820;4.548;2023-06-24T13:49:55;34.10;74.40
11583;DHT22;34299;50.820;4.548;2023-06-24T13:52:22;34.90;72.40
11583;DHT22;34299;50.820;4.548;2023-06-24T13:54:49;35.10;68.70
11583;DHT22;34299;50.820;4.548;2023-06-24T13:57:17;35.40;73.60
11583;DHT22;34299;50.820;4.548;2023-06-24T13:59:45;35.60;68.30
11583;DHT22;34299;50.820;4.548;2023-06-24T14:02:12;35.00;74.10
11583;DHT22;34299;50.820;4.548;2023-06-24T14:04:39;34.70;75.40
11583;DHT22;34299;50.820;4.548;2023-06-24T14:07:07;34.60;73.30
11583;DHT22;34299;50.820;4.548;2023-06-24T14:09:34;35.30;69.40
11583;DHT22;34299;50.820;4.548;2023-06-24T14:12:00;35.70;67.00
11583;DHT22;34299;50.820;4.548;2023-06-24T14:14:27;36.20;69.30
11583;DHT22;34299;50.820;4.548;2023-06-24T14:16:56;35.90;68.30
11583;DHT22;34299;50.820;4.548;2023-06-24T14:19:23;36.30;68.90
11583;DHT22;34299;50.820;4.548;2023-06-24T14:21:50;36.10;70.50
11583;DHT22;34299;50.820;4.548;2023-06-24T14:24:17;36.30;67.00
11583;DHT22;34299;50.820;4.548;2023-06-24T14:26:44;36.10;65.90
11583;DHT22;34299;50.820;4.548;2023-06-24T14:29:14;35.70;65.30
11583;DHT22;34299;50.820;4.548;2023-06-24T14:31:41;35.90;64.40
11583;DHT22;34299;50.820;4.548;2023-06-24T14:34:10;36.10;66.10
11583;DHT22;34299;50.820;4.548;2023-06-24T14:36:37;36.90;66.20
11583;DHT22;34299;50.820;4.548;2023-06-24T14:39:04;37.30;63.40
11583;DHT22;34299;50.820;4.548;2023-06-24T14:41:31;37.40;63.20
11583;DHT22;34299;50.820;4.548;2023-06-24T14:43:58;38.00;61.20
11583;DHT22;34299;50.820;4.548;2023-06-24T14:46:25;38.20;61.60
11583;DHT22;34299;50.820;4.548;2023-06-24T14:48:52;37.80;63.30
11583;DHT22;34299;50.820;4.548;2023-06-24T14:51:20;37.70;61.70
11583;DHT22;34299;50.820;4.548;2023-06-24T14:53:47;36.50;59.80
11583;DHT22;34299;50.820;4.548;2023-06-24T14:56:14;36.40;58.20
11583;DHT22;34299;50.820;4.548;2023-06-24T15:01:09;35.90;60.80
11583;DHT22;34299;50.820;4.548;2023-06-24T15:03:36;38.10;58.20
11583;DHT22;34299;50.820;4.548;2023-06-24T15:06:03;38.70;56.70
11583;DHT22;34299;50.820;4.548;2023-06-24T15:08:31;38.20;59.10
11583;DHT22;34299;50.820;4.548;2023-06-24T15:10:58;38.30;57.40
11583;DHT22;34299;50.820;4.548;2023-06-24T15:13:25;38.70;56.00
11583;DHT22;34299;50.820;4.548;2023-06-24T15:15:52;39.20;57.60
11583;DHT22;34299;50.820;4.548;2023-06-24T15:18:21;39.00;57.90
11583;DHT22;34299;50.820;4.548;2023-06-24T15:20:48;37.60;62.60
11583;DHT22;34299;50.820;4.548;2023-06-24T15:23:28;37.80;57.50
11583;DHT22;34299;50.820;4.548;2023-06-24T15:25:58;37.90;55.90
11583;DHT22;34299;50.820;4.548;2023-06-24T15:28:40;39.30;55.90
11583;DHT22;34299;50.820;4.548;2023-06-24T15:31:07;39.60;55.90
11583;DHT22;34299;50.820;4.548;2023-06-24T15:33:34;40.20;53.60
11583;DHT22;34299;50.820;4.548;2023-06-24T15:36:01;40.20;52.30
11583;DHT22;34299;50.820;4.548;2023-06-24T15:38:29;41.10;51.10
11583;DHT22;34299;50.820;4.548;2023-06-24T15:40:56;40.90;49.50
11583;DHT22;34299;50.820;4.548;2023-06-24T15:43:23;41.40;52.00
11583;DHT22;34299;50.820;4.548;2023-06-24T15:45:50;41.50;50.50
11583;DHT22;34299;50.820;4.548;2023-06-24T15:48:17;41.50;50.00
11583;DHT22;34299;50.820;4.548;2023-06-24T15:50:44;41.60;49.80
11583;DHT22;34299;50.820;4.548;2023-06-24T15:53:11;42.00;47.50
11583;DHT22;34299;50.820;4.548;2023-06-24T15:55:39;43.40;48.90
11583;DHT22;34299;50.820;4.548;2023-06-24T15:58:06;44.00;46.20
11583;DHT22;34299;50.820;4.548;2023-06-24T16:00:33;45.00;46.10
11583;DHT22;34299;50.820;4.548;2023-06-24T16:03:00;45.10;44.70
11583;DHT22;34299;50.820;4.548;2023-06-24T16:05:27;44.80;44.70
11583;DHT22;34299;50.820;4.548;2023-06-24T16:07:53;45.60;43.40
11583;DHT22;34299;50.820;4.548;2023-06-24T16:10:20;44.30;42.90
11583;DHT22;34299;50.820;4.548;2023-06-24T16:12:49;45.10;44.50
11583;DHT22;34299;50.820;4.548;2023-06-24T16:15:15;44.70;42.80
11583;DHT22;34299;50.820;4.548;2023-06-24T16:17:42;45.00;41.50
11583;DHT22;34299;50.820;4.548;2023-06-24T16:20:10;45.40;41.20
11583;DHT22;34299;50.820;4.548;2023-06-24T16:22:39;43.90;41.40
11583;DHT22;34299;50.820;4.548;2023-06-24T16:25:07;45.40;40.60
11583;DHT22;34299;50.820;4.548;2023-06-24T16:27:34;44.50;40.90
11583;DHT22;34299;50.820;4.548;2023-06-24T16:30:03;43.10;40.50
11583;DHT22;34299;50.820;4.548;2023-06-24T16:32:30;44.30;41.10
11583;DHT22;34299;50.820;4.548;2023-06-24T16:34:57;44.20;41.50
11583;DHT22;34299;50.820;4.548;2023-06-24T16:37:24;44.50;41.40
11583;DHT22;34299;50.820;4.548;2023-06-24T16:39:51;45.30;41.70
11583;DHT22;34299;50.820;4.548;2023-06-24T16:42:18;44.90;39.80
11583;DHT22;34299;50.820;4.548;2023-06-24T16:44:45;44.50;39.80
11583;DHT22;34299;50.820;4.548;2023-06-24T16:47:14;44.90;41.00
11583;DHT22;34299;50.820;4.548;2023-06-24T16:49:41;45.00;40.00
11583;DHT22;34299;50.820;4.548;2023-06-24T16:52:08;45.20;39.70
11583;DHT22;34299;50.820;4.548;2023-06-24T16:54:35;45.80;40.20
11583;DHT22;34299;50.820;4.548;2023-06-24T16:57:02;45.60;42.70
11583;DHT22;34299;50.820;4.548;2023-06-24T16:59:29;45.70;41.50
11583;DHT22;34299;50.820;4.548;2023-06-24T17:01:55;45.70;40.20
11583;DHT22;34299;50.820;4.548;2023-06-24T17:04:24;46.10;41.70
11583;DHT22;34299;50.820;4.548;2023-06-24T17:06:51;46.00;41.30
11583;DHT22;34299;50.820;4.548;2023-06-24T17:09:17;45.60;40.20
11583;DHT22;34299;50.820;4.548;2023-06-24T17:11:44;44.90;41.60
11583;DHT22;34299;50.820;4.548;2023-06-24T17:14:11;45.20;42.20
11583;DHT22;34299;50.820;4.548;2023-06-24T17:16:38;43.80;41.60
11583;DHT22;34299;50.820;4.548;2023-06-24T17:19:05;42.50;43.80
11583;DHT22;34299;50.820;4.548;2023-06-24T17:21:33;42.80;43.00
11583;DHT22;34299;50.820;4.548;2023-06-24T17:24:02;42.40;44.50
11583;DHT22;34299;50.820;4.548;2023-06-24T17:26:29;43.00;44.70
11583;DHT22;34299;50.820;4.548;2023-06-24T17:28:56;43.50;44.40
11583;DHT22;34299;50.820;4.548;2023-06-24T17:31:23;43.50;43.60
11583;DHT22;34299;50.820;4.548;2023-06-24T17:33:50;43.10;43.50
11583;DHT22;34299;50.820;4.548;2023-06-24T17:36:17;42.90;43.60
11583;DHT22;34299;50.820;4.548;2023-06-24T17:38:45;42.80;41.60
11583;DHT22;34299;50.820;4.548;2023-06-24T17:41:12;42.40;43.40
11583;DHT22;34299;50.820;4.548;2023-06-24T17:43:39;41.50;46.00
11583;DHT22;34299;50.820;4.548;2023-06-24T17:46:06;41.40;46.10
11583;DHT22;34299;50.820;4.548;2023-06-24T17:48:33;41.70;46.30
11583;DHT22;34299;50.820;4.548;2023-06-24T17:51:00;41.90;44.50
11583;DHT22;34299;50.820;4.548;2023-06-24T17:53:28;41.00;46.60
11583;DHT22;34299;50.820;4.548;2023-06-24T17:55:58;40.70;46.10
11583;DHT22;34299;50.820;4.548;2023-06-24T17:58:25;40.30;45.70
11583;DHT22;34299;50.820;4.548;2023-06-24T18:00:51;39.90;46.10
11583;DHT22;34299;50.820;4.548;2023-06-24T18:03:18;39.10;47.60
11583;DHT22;34299;50.820;4.548;2023-06-24T18:05:46;39.00;47.70
11583;DHT22;34299;50.820;4.548;2023-06-24T18:08:13;38.80;46.60
11583;DHT22;34299;50.820;4.548;2023-06-24T18:10:40;38.60;47.60
11583;DHT22;34299;50.820;4.548;2023-06-24T18:13:08;38.30;47.50
11583;DHT22;34299;50.820;4.548;2023-06-24T18:15:35;38.40;48.90
11583;DHT22;34299;50.820;4.548;2023-06-24T18:18:02;38.60;48.60
11583;DHT22;34299;50.820;4.548;2023-06-24T18:20:29;38.70;48.70
11583;DHT22;34299;50.820;4.548;2023-06-24T18:22:56;38.60;49.00
11583;DHT22;34299;50.820;4.548;2023-06-24T18:25:23;38.50;49.00
11583;DHT22;34299;50.820;4.548;2023-06-24T18:27:50;38.20;49.80
11583;DHT22;34299;50.820;4.548;2023-06-24T18:30:18;38.00;51.50
11583;DHT22;34299;50.820;4.548;2023-06-24T18:32:45;38.00;51.80
11583;DHT22;34299;50.820;4.548;2023-06-24T18:35:12;37.60;52.30
11583;DHT22;34299;50.820;4.548;2023-06-24T18:37:38;37.10;51.80
11583;DHT22;34299;50.820;4.548;2023-06-24T18:40:07;35.60;53.70
11583;DHT22;34299;50.820;4.548;2023-06-24T18:45:01;34.00;55.60
11583;DHT22;34299;50.820;4.548;2023-06-24T18:47:30;33.00;56.70
11583;DHT22;34299;50.820;4.548;2023-06-24T18:49:57;32.90;56.80
11583;DHT22;34299;50.820;4.548;2023-06-24T18:52:24;32.50;59.60
11583;DHT22;34299;50.820;4.548;2023-06-24T18:54:51;32.30;58.90
11583;DHT22;34299;50.820;4.548;2023-06-24T18:57:18;31.80;62.10
11583;DHT22;34299;50.820;4.548;2023-06-24T18:59:45;31.40;63.90
11583;DHT22;34299;50.820;4.548;2023-06-24T19:02:12;31.00;66.80
11583;DHT22;34299;50.820;4.548;2023-06-24T19:14:30;30.60;69.30
11583;DHT22;34299;50.820;4.548;2023-06-24T19:19:24;28.50;91.50
11583;DHT22;34299;50.820;4.548;2023-06-24T19:21:52;27.00;99.90
11583;DHT22;34299;50.820;4.548;2023-06-24T19:24:19;26.80;99.90
11583;DHT22;34299;50.820;4.548;2023-06-24T19:26:46;26.50;99.90
11583;DHT22;34299;50.820;4.548;2023-06-24T19:29:13;26.60;99.90
11583;DHT22;34299;50.820;4.548;2023-06-24T19:31:40;26.60;99.90
11583;DHT22;34299;50.820;4.548;2023-06-24T19:34:07;26.20;99.90
11583;DHT22;34299;50.820;4.548;2023-06-24T19:36:34;25.80;99.90
11583;DHT22;34299;50.820;4.548;2023-06-24T19:39:02;25.60;99.90
11583;DHT22;34299;50.820;4.548;2023-06-24T19:41:29;25.50;99.90
11583;DHT22;34299;50.820;4.548;2023-06-24T19:44:03;25.10;99.90
11583;DHT22;34299;50.820;4.548;2023-06-24T19:46:30;24.80;99.90
11583;DHT22;34299;50.820;4.548;2023-06-24T19:48:57;24.70;99.90
11583;DHT22;34299;50.820;4.548;2023-06-24T19:51:24;24.70;99.90
11583;DHT22;34299;50.820;4.548;2023-06-24T19:53:51;24.60;99.90
11583;DHT22;34299;50.820;4.548;2023-06-24T19:56:20;24.50;99.90
11583;DHT22;34299;50.820;4.548;2023-06-24T19:58:46;24.40;99.90
11583;DHT22;34299;50.820;4.548;2023-06-24T20:01:13;24.50;99.90
11583;DHT22;34299;50.820;4.548;2023-06-24T20:03:40;24.40;99.90
11583;DHT22;34299;50.820;4.548;2023-06-24T20:06:07;24.20;99.90
11583;DHT22;34299;50.820;4.548;2023-06-24T20:08:34;24.10;99.90
11583;DHT22;34299;50.820;4.548;2023-06-24T20:38:04;23.70;99.90
11583;DHT22;34299;50.820;4.548;2023-06-24T20:40:31;22.50;99.90
11583;DHT22;34299;50.820;4.548;2023-06-24T20:42:58;22.30;99.90
11583;DHT22;34299;50.820;4.548;2023-06-24T20:45:25;21.90;99.90
11583;DHT22;34299;50.820;4.548;2023-06-24T20:47:53;21.90;99.90
11583;DHT22;34299;50.820;4.548;2023-06-24T20:50:20;22.00;99.90
11583;DHT22;34299;50.820;4.548;2023-06-24T20:52:47;22.30;99.90
11583;DHT22;34299;50.820;4.548;2023-06-24T20:55:13;22.40;99.90
11583;DHT22;34299;50.820;4.548;2023-06-24T20:57:40;22.50;99.90
11583;DHT22;34299;50.820;4.548;2023-06-24T21:00:08;22.20;99.90
11583;DHT22;34299;50.820;4.548;2023-06-24T21:02:35;21.90;99.90
11583;DHT22;34299;50.820;4.548;2023-06-24T21:05:04;21.70;99.90
11583;DHT22;34299;50.820;4.548;2023-06-24T21:07:31;21.80;99.90
11583;DHT22;34299;50.820;4.548;2023-06-24T21:09:57;21.70;99.90
11583;DHT22;34299;50.820;4.548;2023-06-24T21:12:24;21.60;99.90
11583;DHT22;34299;50.820;4.548;2023-06-24T21:14:51;21.60;99.90
11583;DHT22;34299;50.820;4.548;2023-06-24T21:17:18;21.40;99.90
11583;DHT22;34299;50.820;4.548;2023-06-24T21:19:45;21.40;99.90
11583;DHT22;34299;50.820;4.548;2023-06-24T21:22:13;21.40;99.90
11583;DHT22;34299;50.820;4.548;2023-06-24T21:24:40;21.40;99.90
11583;DHT22;34299;50.820;4.548;2023-06-24T21:27:07;21.30;99.90
11583;DHT22;34299;50.820;4.548;2023-06-24T21:29:34;21.10;99.90
11583;DHT22;34299;50.820;4.548;2023-06-24T21:32:01;21.00;99.90
11583;DHT22;34299;50.820;4.548;2023-06-24T21:34:28;20.70;99.90
11583;DHT22;34299;50.820;4.548;2023-06-24T21:36:55;20.70;99.90
11583;DHT22;34299;50.820;4.548;2023-06-24T21:39:23;20.60;99.90
11583;DHT22;34299;50.820;4.548;2023-06-24T21:41:50;20.60;99.90
11583;DHT22;34299;50.820;4.548;2023-06-24T21:44:17;20.60;99.90
11583;DHT22;34299;50.820;4.548;2023-06-24T21:46:44;20.40;99.90
11583;DHT22;34299;50.820;4.548;2023-06-24T21:49:11;20.20;99.90
11583;DHT22;34299;50.820;4.548;2023-06-24T21:51:39;20.20;99.90
11583;DHT22;34299;50.820;4.548;2023-06-24T21:54:06;20.30;99.90
11583;DHT22;34299;50.820;4.548;2023-06-24T21:56:35;20.40;99.90
11583;DHT22;34299;50.820;4.548;2023-06-24T21:59:02;20.30;99.90
